sensor_id;sensor_type;location;lat;lon;timestamp;temperature;humidity
8780;DHT22;62328;51.19929245;4.42130175;2023-11-21T00:01:15;9.70;99.90
8780;DHT22;62328;51.19929245;4.42130175;2023-11-21T00:03:43;9.70;99.90
8780;DHT22;62328;51.19929245;4.42130175;2023-11-21T00:06:10;9.70;99.90
8780;DHT22;62328;51.19929245;4.42130175;2023-11-21T00:08:37;9.60;99.90
8780;DHT22;62328;51.19929245;4.42130175;2023-11-21T00:11:06;9.70;99.90
8780;DHT22;62328;51.19929245;4.42130175;2023-11-21T00:13:33;9.70;99.90
8780;DHT22;62328;51.19929245;4.42130175;2023-11-21T00:16:00;9.70;99.90
8780;DHT22;62328;51.19929245;4.42130175;2023-11-21T00:18:27;9.70;99.90
8780;DHT22;62328;51.19929245;4.42130175;2023-11-21T00:20:54;9.70;99.90
8780;DHT22;62328;51.19929245;4.42130175;2023-11-21T00:23:21;9.70;99.90
8780;DHT22;62328;51.19929245;4.42130175;2023-11-21T00:25:47;9.70;99.90
8780;DHT22;62328;51.19929245;4.42130175;2023-11-21T00:28:15;9.70;99.90
8780;DHT22;62328;51.19929245;4.42130175;2023-11-21T00:30:42;9.70;99.90
8780;DHT22;62328;51.19929245;4.42130175;2023-11-21T00:33:10;9.70;99.90
8780;DHT22;62328;51.19929245;4.42130175;2023-11-21T00:35:37;9.70;99.90
8780;DHT22;62328;51.19929245;4.42130175;2023-11-21T00:38:04;9.70;99.90
8780;DHT22;62328;51.19929245;4.42130175;2023-11-21T00:40:30;9.70;99.90
8780;DHT22;62328;51.19929245;4.42130175;2023-11-21T00:42:59;9.70;99.90
8780;DHT22;62328;51.19929245;4.42130175;2023-11-21T00:45:28;9.80;99.90
8780;DHT22;62328;51.19929245;4.42130175;2023-11-21T00:47:54;9.90;99.90
8780;DHT22;62328;51.19929245;4.42130175;2023-11-21T00:50:22;9.80;99.90
8780;DHT22;62328;51.19929245;4.42130175;2023-11-21T00:52:49;9.80;99.90
8780;DHT22;62328;51.19929245;4.42130175;2023-11-21T00:55:17;9.80;99.90
8780;DHT22;62328;51.19929245;4.42130175;2023-11-21T00:57:45;9.80;99.90
8780;DHT22;62328;51.19929245;4.42130175;2023-11-21T01:00:12;9.80;99.90
8780;DHT22;62328;51.19929245;4.42130175;2023-11-21T01:02:44;9.80;99.90
8780;DHT22;62328;51.19929245;4.42130175;2023-11-21T01:05:11;9.70;99.90
8780;DHT22;62328;51.19929245;4.42130175;2023-11-21T01:07:39;9.70;99.90
8780;DHT22;62328;51.19929245;4.42130175;2023-11-21T01:10:07;9.70;99.90
8780;DHT22;62328;51.19929245;4.42130175;2023-11-21T01:12:35;9.80;99.90
8780;DHT22;62328;51.19929245;4.42130175;2023-11-21T01:15:03;9.70;99.90
8780;DHT22;62328;51.19929245;4.42130175;2023-11-21T01:17:32;9.70;99.90
8780;DHT22;62328;51.19929245;4.42130175;2023-11-21T01:20:01;9.70;99.90
8780;DHT22;62328;51.19929245;4.42130175;2023-11-21T01:22:28;9.70;99.90
8780;DHT22;62328;51.19929245;4.42130175;2023-11-21T01:24:55;9.70;99.90
8780;DHT22;62328;51.19929245;4.42130175;2023-11-21T01:27:22;9.70;99.90
8780;DHT22;62328;51.19929245;4.42130175;2023-11-21T01:29:48;9.70;99.90
8780;DHT22;62328;51.19929245;4.42130175;2023-11-21T01:32:19;9.70;99.90
8780;DHT22;62328;51.19929245;4.42130175;2023-11-21T01:34:45;9.70;99.90
8780;DHT22;62328;51.19929245;4.42130175;2023-11-21T01:37:13;9.70;99.90
8780;DHT22;62328;51.19929245;4.42130175;2023-11-21T01:39:40;9.70;99.90
8780;DHT22;62328;51.19929245;4.42130175;2023-11-21T01:42:08;9.70;99.90
8780;DHT22;62328;51.19929245;4.42130175;2023-11-21T01:44:35;9.80;99.90
8780;DHT22;62328;51.19929245;4.42130175;2023-11-21T01:47:02;9.80;99.90
8780;DHT22;62328;51.19929245;4.42130175;2023-11-21T01:49:31;9.90;99.90
8780;DHT22;62328;51.19929245;4.42130175;2023-11-21T01:51:59;9.80;99.90
8780;DHT22;62328;51.19929245;4.42130175;2023-11-21T01:54:27;9.80;99.90
8780;DHT22;62328;51.19929245;4.42130175;2023-11-21T01:56:57;9.80;99.90
8780;DHT22;62328;51.19929245;4.42130175;2023-11-21T01:59:31;9.80;99.90
8780;DHT22;62328;51.19929245;4.42130175;2023-11-21T02:02:00;9.90;99.90
8780;DHT22;62328;51.19929245;4.42130175;2023-11-21T02:04:27;9.80;99.90
8780;DHT22;62328;51.19929245;4.42130175;2023-11-21T02:06:54;9.80;99.90
8780;DHT22;62328;51.19929245;4.42130175;2023-11-21T02:09:26;9.80;99.90
8780;DHT22;62328;51.19929245;4.42130175;2023-11-21T02:11:54;9.80;99.90
8780;DHT22;62328;51.19929245;4.42130175;2023-11-21T02:14:21;9.80;99.90
8780;DHT22;62328;51.19929245;4.42130175;2023-11-21T02:16:48;9.80;99.90
8780;DHT22;62328;51.19929245;4.42130175;2023-11-21T02:19:18;9.80;99.90
8780;DHT22;62328;51.19929245;4.42130175;2023-11-21T02:21:49;9.90;99.90
8780;DHT22;62328;51.19929245;4.42130175;2023-11-21T02:24:19;9.90;99.90
8780;DHT22;62328;51.19929245;4.42130175;2023-11-21T02:26:46;9.90;99.90
8780;DHT22;62328;51.19929245;4.42130175;2023-11-21T02:29:13;9.90;99.90
8780;DHT22;62328;51.19929245;4.42130175;2023-11-21T02:31:43;9.90;99.90
8780;DHT22;62328;51.19929245;4.42130175;2023-11-21T02:34:14;9.90;99.90
8780;DHT22;62328;51.19929245;4.42130175;2023-11-21T02:36:42;9.90;99.90
8780;DHT22;62328;51.19929245;4.42130175;2023-11-21T02:39:09;9.90;99.90
8780;DHT22;62328;51.19929245;4.42130175;2023-11-21T02:41:37;9.90;99.90
8780;DHT22;62328;51.19929245;4.42130175;2023-11-21T02:44:05;9.90;99.90
8780;DHT22;62328;51.19929245;4.42130175;2023-11-21T02:46:32;9.90;99.90
8780;DHT22;62328;51.19929245;4.42130175;2023-11-21T02:48:59;9.90;99.90
8780;DHT22;62328;51.19929245;4.42130175;2023-11-21T02:51:26;9.90;99.90
8780;DHT22;62328;51.19929245;4.42130175;2023-11-21T02:53:53;9.90;99.90
8780;DHT22;62328;51.19929245;4.42130175;2023-11-21T02:56:20;9.90;99.90
8780;DHT22;62328;51.19929245;4.42130175;2023-11-21T02:58:48;10.00;99.90
8780;DHT22;62328;51.19929245;4.42130175;2023-11-21T03:01:15;9.90;99.90
8780;DHT22;62328;51.19929245;4.42130175;2023-11-21T03:03:42;10.00;99.90
8780;DHT22;62328;51.19929245;4.42130175;2023-11-21T03:06:09;10.00;99.90
8780;DHT22;62328;51.19929245;4.42130175;2023-11-21T03:08:36;10.00;99.90
8780;DHT22;62328;51.19929245;4.42130175;2023-11-21T03:11:03;10.00;99.90
8780;DHT22;62328;51.19929245;4.42130175;2023-11-21T03:13:30;10.00;99.90
8780;DHT22;62328;51.19929245;4.42130175;2023-11-21T03:15:58;10.00;99.90
8780;DHT22;62328;51.19929245;4.42130175;2023-11-21T03:18:25;10.00;99.90
8780;DHT22;62328;51.19929245;4.42130175;2023-11-21T03:20:53;10.00;99.90
8780;DHT22;62328;51.19929245;4.42130175;2023-11-21T03:23:20;10.00;99.90
8780;DHT22;62328;51.19929245;4.42130175;2023-11-21T03:25:47;10.00;99.90
8780;DHT22;62328;51.19929245;4.42130175;2023-11-21T03:28:14;10.00;99.90
8780;DHT22;62328;51.19929245;4.42130175;2023-11-21T03:30:41;10.00;99.90
8780;DHT22;62328;51.19929245;4.42130175;2023-11-21T03:33:09;10.00;99.90
8780;DHT22;62328;51.19929245;4.42130175;2023-11-21T03:35:36;10.00;99.90
8780;DHT22;62328;51.19929245;4.42130175;2023-11-21T03:38:02;10.00;99.90
8780;DHT22;62328;51.19929245;4.42130175;2023-11-21T03:40:30;10.00;99.90
8780;DHT22;62328;51.19929245;4.42130175;2023-11-21T03:42:57;10.00;99.90
8780;DHT22;62328;51.19929245;4.42130175;2023-11-21T03:45:24;10.00;99.90
8780;DHT22;62328;51.19929245;4.42130175;2023-11-21T03:47:50;10.00;99.90
8780;DHT22;62328;51.19929245;4.42130175;2023-11-21T03:50:18;10.00;99.90
8780;DHT22;62328;51.19929245;4.42130175;2023-11-21T03:52:45;10.00;99.90
8780;DHT22;62328;51.19929245;4.42130175;2023-11-21T03:55:12;10.00;99.90
8780;DHT22;62328;51.19929245;4.42130175;2023-11-21T03:57:40;10.00;99.90
8780;DHT22;62328;51.19929245;4.42130175;2023-11-21T04:00:08;10.00;99.90
8780;DHT22;62328;51.19929245;4.42130175;2023-11-21T04:02:35;10.00;99.90
8780;DHT22;62328;51.19929245;4.42130175;2023-11-21T04:05:02;10.00;99.90
8780;DHT22;62328;51.19929245;4.42130175;2023-11-21T04:07:31;10.10;99.90
8780;DHT22;62328;51.19929245;4.42130175;2023-11-21T04:09:58;10.10;99.90
8780;DHT22;62328;51.19929245;4.42130175;2023-11-21T04:12:25;10.10;99.90
8780;DHT22;62328;51.19929245;4.42130175;2023-11-21T04:14:52;10.10;99.90
8780;DHT22;62328;51.19929245;4.42130175;2023-11-21T04:17:19;10.10;99.90
8780;DHT22;62328;51.19929245;4.42130175;2023-11-21T04:19:46;10.10;99.90
8780;DHT22;62328;51.19929245;4.42130175;2023-11-21T04:22:13;10.10;99.90
8780;DHT22;62328;51.19929245;4.42130175;2023-11-21T04:24:41;10.10;99.90
8780;DHT22;62328;51.19929245;4.42130175;2023-11-21T04:27:08;10.10;99.90
8780;DHT22;62328;51.19929245;4.42130175;2023-11-21T04:29:35;10.10;99.90
8780;DHT22;62328;51.19929245;4.42130175;2023-11-21T04:32:02;10.10;99.90
8780;DHT22;62328;51.19929245;4.42130175;2023-11-21T04:34:29;10.10;99.90
8780;DHT22;62328;51.19929245;4.42130175;2023-11-21T04:36:56;10.10;99.90
8780;DHT22;62328;51.19929245;4.42130175;2023-11-21T04:39:23;10.10;99.90
8780;DHT22;62328;51.19929245;4.42130175;2023-11-21T04:41:51;10.10;99.90
8780;DHT22;62328;51.19929245;4.42130175;2023-11-21T04:44:18;10.10;99.90
8780;DHT22;62328;51.19929245;4.42130175;2023-11-21T04:46:45;10.10;99.90
8780;DHT22;62328;51.19929245;4.42130175;2023-11-21T04:49:12;10.10;99.90
8780;DHT22;62328;51.19929245;4.42130175;2023-11-21T04:51:39;10.10;99.90
8780;DHT22;62328;51.19929245;4.42130175;2023-11-21T04:54:07;10.10;99.90
8780;DHT22;62328;51.19929245;4.42130175;2023-11-21T04:56:33;10.20;99.90
8780;DHT22;62328;51.19929245;4.42130175;2023-11-21T04:59:02;10.10;99.90
8780;DHT22;62328;51.19929245;4.42130175;2023-11-21T05:01:30;10.10;99.90
8780;DHT22;62328;51.19929245;4.42130175;2023-11-21T05:03:57;10.10;99.90
8780;DHT22;62328;51.19929245;4.42130175;2023-11-21T05:06:24;10.10;99.90
8780;DHT22;62328;51.19929245;4.42130175;2023-11-21T05:08:51;10.10;99.90
8780;DHT22;62328;51.19929245;4.42130175;2023-11-21T05:11:25;10.10;99.90
8780;DHT22;62328;51.19929245;4.42130175;2023-11-21T05:13:51;10.10;99.90
8780;DHT22;62328;51.19929245;4.42130175;2023-11-21T05:16:20;10.10;99.90
8780;DHT22;62328;51.19929245;4.42130175;2023-11-21T05:18:47;10.10;99.90
8780;DHT22;62328;51.19929245;4.42130175;2023-11-21T05:21:16;10.10;99.90
8780;DHT22;62328;51.19929245;4.42130175;2023-11-21T05:23:46;10.10;99.90
8780;DHT22;62328;51.19929245;4.42130175;2023-11-21T05:26:13;10.10;99.90
8780;DHT22;62328;51.19929245;4.42130175;2023-11-21T05:28:40;10.10;99.90
8780;DHT22;62328;51.19929245;4.42130175;2023-11-21T05:31:07;10.10;99.90
8780;DHT22;62328;51.19929245;4.42130175;2023-11-21T05:33:35;10.10;99.90
8780;DHT22;62328;51.19929245;4.42130175;2023-11-21T05:36:04;10.10;99.90
8780;DHT22;62328;51.19929245;4.42130175;2023-11-21T05:38:33;10.20;99.90
8780;DHT22;62328;51.19929245;4.42130175;2023-11-21T05:41:00;10.20;99.90
8780;DHT22;62328;51.19929245;4.42130175;2023-11-21T05:43:27;10.20;99.90
8780;DHT22;62328;51.19929245;4.42130175;2023-11-21T05:45:55;10.20;99.90
8780;DHT22;62328;51.19929245;4.42130175;2023-11-21T05:48:22;10.20;99.90
8780;DHT22;62328;51.19929245;4.42130175;2023-11-21T05:50:50;10.20;99.90
8780;DHT22;62328;51.19929245;4.42130175;2023-11-21T05:53:17;10.10;99.90
8780;DHT22;62328;51.19929245;4.42130175;2023-11-21T05:55:44;10.20;99.90
8780;DHT22;62328;51.19929245;4.42130175;2023-11-21T05:58:11;10.10;99.90
8780;DHT22;62328;51.19929245;4.42130175;2023-11-21T06:00:39;10.20;99.90
8780;DHT22;62328;51.19929245;4.42130175;2023-11-21T06:03:06;10.20;99.90
8780;DHT22;62328;51.19929245;4.42130175;2023-11-21T06:05:33;10.20;99.90
8780;DHT22;62328;51.19929245;4.42130175;2023-11-21T06:08:01;10.20;99.90
8780;DHT22;62328;51.19929245;4.42130175;2023-11-21T06:10:28;10.20;99.90
8780;DHT22;62328;51.19929245;4.42130175;2023-11-21T06:12:55;10.20;99.90
8780;DHT22;62328;51.19929245;4.42130175;2023-11-21T06:15:23;10.20;99.90
8780;DHT22;62328;51.19929245;4.42130175;2023-11-21T06:17:50;10.20;99.90
8780;DHT22;62328;51.19929245;4.42130175;2023-11-21T06:20:19;10.20;99.90
8780;DHT22;62328;51.19929245;4.42130175;2023-11-21T06:22:47;10.20;99.90
8780;DHT22;62328;51.19929245;4.42130175;2023-11-21T06:25:15;10.20;99.90
8780;DHT22;62328;51.19929245;4.42130175;2023-11-21T06:27:44;10.20;99.90
8780;DHT22;62328;51.19929245;4.42130175;2023-11-21T06:30:12;10.20;99.90
8780;DHT22;62328;51.19929245;4.42130175;2023-11-21T06:32:39;10.20;99.90
8780;DHT22;62328;51.19929245;4.42130175;2023-11-21T06:35:07;10.30;99.90
8780;DHT22;62328;51.19929245;4.42130175;2023-11-21T06:37:35;10.30;99.90
8780;DHT22;62328;51.19929245;4.42130175;2023-11-21T06:40:03;10.30;99.90
8780;DHT22;62328;51.19929245;4.42130175;2023-11-21T06:42:32;10.30;99.90
8780;DHT22;62328;51.19929245;4.42130175;2023-11-21T06:45:00;10.30;99.90
8780;DHT22;62328;51.19929245;4.42130175;2023-11-21T06:47:29;10.30;99.90
8780;DHT22;62328;51.19929245;4.42130175;2023-11-21T06:49:56;10.30;99.90
8780;DHT22;62328;51.19929245;4.42130175;2023-11-21T06:52:23;10.30;99.90
8780;DHT22;62328;51.19929245;4.42130175;2023-11-21T06:54:50;10.30;99.90
8780;DHT22;62328;51.19929245;4.42130175;2023-11-21T06:57:17;10.30;99.90
8780;DHT22;62328;51.19929245;4.42130175;2023-11-21T06:59:45;10.30;99.90
8780;DHT22;62328;51.19929245;4.42130175;2023-11-21T07:02:12;10.40;99.90
8780;DHT22;62328;51.19929245;4.42130175;2023-11-21T07:04:40;10.30;99.90
8780;DHT22;62328;51.19929245;4.42130175;2023-11-21T07:07:07;10.40;99.90
8780;DHT22;62328;51.19929245;4.42130175;2023-11-21T07:09:33;10.40;99.90
8780;DHT22;62328;51.19929245;4.42130175;2023-11-21T07:12:00;10.40;99.90
8780;DHT22;62328;51.19929245;4.42130175;2023-11-21T07:14:29;10.40;99.90
8780;DHT22;62328;51.19929245;4.42130175;2023-11-21T07:16:58;10.40;99.90
8780;DHT22;62328;51.19929245;4.42130175;2023-11-21T07:19:24;10.50;99.90
8780;DHT22;62328;51.19929245;4.42130175;2023-11-21T07:21:52;10.40;99.90
8780;DHT22;62328;51.19929245;4.42130175;2023-11-21T07:24:19;10.50;99.90
8780;DHT22;62328;51.19929245;4.42130175;2023-11-21T07:26:46;10.50;99.90
8780;DHT22;62328;51.19929245;4.42130175;2023-11-21T07:29:13;10.50;99.90
8780;DHT22;62328;51.19929245;4.42130175;2023-11-21T07:31:40;10.50;99.90
8780;DHT22;62328;51.19929245;4.42130175;2023-11-21T07:34:09;10.50;99.90
8780;DHT22;62328;51.19929245;4.42130175;2023-11-21T07:36:37;10.50;99.90
8780;DHT22;62328;51.19929245;4.42130175;2023-11-21T07:39:05;10.60;99.90
8780;DHT22;62328;51.19929245;4.42130175;2023-11-21T07:41:32;10.60;99.90
8780;DHT22;62328;51.19929245;4.42130175;2023-11-21T07:43:59;10.60;99.90
8780;DHT22;62328;51.19929245;4.42130175;2023-11-21T07:46:26;10.60;99.90
8780;DHT22;62328;51.19929245;4.42130175;2023-11-21T07:48:53;10.60;99.90
8780;DHT22;62328;51.19929245;4.42130175;2023-11-21T07:51:22;10.60;99.90
8780;DHT22;62328;51.19929245;4.42130175;2023-11-21T07:53:49;10.60;99.90
8780;DHT22;62328;51.19929245;4.42130175;2023-11-21T07:56:15;10.60;99.90
8780;DHT22;62328;51.19929245;4.42130175;2023-11-21T07:58:43;10.60;99.90
8780;DHT22;62328;51.19929245;4.42130175;2023-11-21T08:01:10;10.60;99.90
8780;DHT22;62328;51.19929245;4.42130175;2023-11-21T08:03:37;10.60;99.90
8780;DHT22;62328;51.19929245;4.42130175;2023-11-21T08:06:04;10.60;99.90
8780;DHT22;62328;51.19929245;4.42130175;2023-11-21T08:08:33;10.60;99.90
8780;DHT22;62328;51.19929245;4.42130175;2023-11-21T08:10:59;10.70;99.90
8780;DHT22;62328;51.19929245;4.42130175;2023-11-21T08:13:28;10.60;99.90
8780;DHT22;62328;51.19929245;4.42130175;2023-11-21T08:15:56;10.70;99.90
8780;DHT22;62328;51.19929245;4.42130175;2023-11-21T08:18:27;10.70;99.90
8780;DHT22;62328;51.19929245;4.42130175;2023-11-21T08:20:54;10.70;99.90
8780;DHT22;62328;51.19929245;4.42130175;2023-11-21T08:23:21;10.70;99.90
8780;DHT22;62328;51.19929245;4.42130175;2023-11-21T08:25:52;10.70;99.90
8780;DHT22;62328;51.19929245;4.42130175;2023-11-21T08:28:20;10.70;99.90
8780;DHT22;62328;51.19929245;4.42130175;2023-11-21T08:30:47;10.70;99.90
8780;DHT22;62328;51.19929245;4.42130175;2023-11-21T08:33:14;10.70;99.90
8780;DHT22;62328;51.19929245;4.42130175;2023-11-21T08:35:41;10.70;99.90
8780;DHT22;62328;51.19929245;4.42130175;2023-11-21T08:38:08;10.70;99.90
8780;DHT22;62328;51.19929245;4.42130175;2023-11-21T08:40:35;10.70;99.90
8780;DHT22;62328;51.19929245;4.42130175;2023-11-21T08:43:03;10.70;99.90
8780;DHT22;62328;51.19929245;4.42130175;2023-11-21T08:45:31;10.70;99.90
8780;DHT22;62328;51.19929245;4.42130175;2023-11-21T08:47:59;10.70;99.90
8780;DHT22;62328;51.19929245;4.42130175;2023-11-21T08:50:27;10.70;99.90
8780;DHT22;62328;51.19929245;4.42130175;2023-11-21T08:52:57;10.70;99.90
8780;DHT22;62328;51.19929245;4.42130175;2023-11-21T08:55:23;10.80;99.90
8780;DHT22;62328;51.19929245;4.42130175;2023-11-21T08:57:50;10.80;99.90
8780;DHT22;62328;51.19929245;4.42130175;2023-11-21T09:00:18;10.80;99.90
8780;DHT22;62328;51.19929245;4.42130175;2023-11-21T09:02:48;10.80;99.90
8780;DHT22;62328;51.19929245;4.42130175;2023-11-21T09:05:15;10.90;99.90
8780;DHT22;62328;51.19929245;4.42130175;2023-11-21T09:07:42;10.90;99.90
8780;DHT22;62328;51.19929245;4.42130175;2023-11-21T09:10:11;10.90;99.90
8780;DHT22;62328;51.19929245;4.42130175;2023-11-21T09:12:38;11.00;99.90
8780;DHT22;62328;51.19929245;4.42130175;2023-11-21T09:15:06;11.00;99.90
8780;DHT22;62328;51.19929245;4.42130175;2023-11-21T09:17:34;11.00;99.90
8780;DHT22;62328;51.19929245;4.42130175;2023-11-21T09:20:01;11.00;99.90
8780;DHT22;62328;51.19929245;4.42130175;2023-11-21T09:22:30;11.10;99.90
8780;DHT22;62328;51.19929245;4.42130175;2023-11-21T09:24:57;11.10;99.90
8780;DHT22;62328;51.19929245;4.42130175;2023-11-21T09:27:24;11.20;99.90
8780;DHT22;62328;51.19929245;4.42130175;2023-11-21T09:29:52;11.20;99.90
8780;DHT22;62328;51.19929245;4.42130175;2023-11-21T09:32:19;11.30;99.90
8780;DHT22;62328;51.19929245;4.42130175;2023-11-21T09:34:48;11.30;99.90
8780;DHT22;62328;51.19929245;4.42130175;2023-11-21T09:37:15;11.30;99.90
8780;DHT22;62328;51.19929245;4.42130175;2023-11-21T09:39:42;11.30;99.90
8780;DHT22;62328;51.19929245;4.42130175;2023-11-21T09:42:11;11.30;99.90
8780;DHT22;62328;51.19929245;4.42130175;2023-11-21T09:44:45;11.30;99.90
8780;DHT22;62328;51.19929245;4.42130175;2023-11-21T09:47:15;11.30;99.90
8780;DHT22;62328;51.19929245;4.42130175;2023-11-21T09:49:45;11.40;99.90
8780;DHT22;62328;51.19929245;4.42130175;2023-11-21T09:52:20;11.50;99.90
8780;DHT22;62328;51.19929245;4.42130175;2023-11-21T09:54:51;11.40;99.90
8780;DHT22;62328;51.19929245;4.42130175;2023-11-21T09:57:19;11.50;99.90
8780;DHT22;62328;51.19929245;4.42130175;2023-11-21T09:59:47;11.50;99.90
8780;DHT22;62328;51.19929245;4.42130175;2023-11-21T10:02:16;11.50;99.90
8780;DHT22;62328;51.19929245;4.42130175;2023-11-21T10:04:44;11.50;99.90
8780;DHT22;62328;51.19929245;4.42130175;2023-11-21T10:07:12;11.60;99.90
8780;DHT22;62328;51.19929245;4.42130175;2023-11-21T10:09:42;11.90;99.90
8780;DHT22;62328;51.19929245;4.42130175;2023-11-21T10:12:10;11.70;99.90
8780;DHT22;62328;51.19929245;4.42130175;2023-11-21T10:14:41;11.70;99.90
8780;DHT22;62328;51.19929245;4.42130175;2023-11-21T10:17:10;11.70;99.90
8780;DHT22;62328;51.19929245;4.42130175;2023-11-21T10:19:39;11.80;99.90
8780;DHT22;62328;51.19929245;4.42130175;2023-11-21T10:22:06;11.80;99.90
8780;DHT22;62328;51.19929245;4.42130175;2023-11-21T10:24:34;11.80;99.90
8780;DHT22;62328;51.19929245;4.42130175;2023-11-21T10:27:04;11.90;99.90
8780;DHT22;62328;51.19929245;4.42130175;2023-11-21T10:29:31;11.90;99.90
8780;DHT22;62328;51.19929245;4.42130175;2023-11-21T10:32:02;12.00;99.90
8780;DHT22;62328;51.19929245;4.42130175;2023-11-21T10:34:31;12.00;99.90
8780;DHT22;62328;51.19929245;4.42130175;2023-11-21T10:36:58;12.00;99.90
8780;DHT22;62328;51.19929245;4.42130175;2023-11-21T10:39:25;11.90;99.90
8780;DHT22;62328;51.19929245;4.42130175;2023-11-21T10:41:56;12.00;99.90
8780;DHT22;62328;51.19929245;4.42130175;2023-11-21T10:44:24;12.00;99.90
8780;DHT22;62328;51.19929245;4.42130175;2023-11-21T10:46:53;11.90;99.90
8780;DHT22;62328;51.19929245;4.42130175;2023-11-21T10:49:22;12.00;99.90
8780;DHT22;62328;51.19929245;4.42130175;2023-11-21T10:51:50;12.00;99.90
8780;DHT22;62328;51.19929245;4.42130175;2023-11-21T10:54:22;12.00;99.90
8780;DHT22;62328;51.19929245;4.42130175;2023-11-21T10:56:50;12.00;99.90
8780;DHT22;62328;51.19929245;4.42130175;2023-11-21T10:59:18;12.00;99.90
8780;DHT22;62328;51.19929245;4.42130175;2023-11-21T11:01:52;12.00;99.90
8780;DHT22;62328;51.19929245;4.42130175;2023-11-21T11:04:19;12.10;99.90
8780;DHT22;62328;51.19929245;4.42130175;2023-11-21T11:06:51;12.10;99.90
8780;DHT22;62328;51.19929245;4.42130175;2023-11-21T11:09:20;12.10;99.90
8780;DHT22;62328;51.19929245;4.42130175;2023-11-21T11:11:48;12.00;99.90
8780;DHT22;62328;51.19929245;4.42130175;2023-11-21T11:14:15;12.00;99.90
8780;DHT22;62328;51.19929245;4.42130175;2023-11-21T11:16:42;12.00;99.90
8780;DHT22;62328;51.19929245;4.42130175;2023-11-21T11:19:12;12.00;99.90
8780;DHT22;62328;51.19929245;4.42130175;2023-11-21T11:21:46;12.00;99.90
8780;DHT22;62328;51.19929245;4.42130175;2023-11-21T11:27:37;12.10;99.90
8780;DHT22;62328;51.19929245;4.42130175;2023-11-21T11:30:16;12.10;99.90
8780;DHT22;62328;51.19929245;4.42130175;2023-11-21T11:32:55;12.10;99.90
8780;DHT22;62328;51.19929245;4.42130175;2023-11-21T11:35:32;12.10;99.90
8780;DHT22;62328;51.19929245;4.42130175;2023-11-21T11:38:01;12.10;99.90
8780;DHT22;62328;51.19929245;4.42130175;2023-11-21T11:40:38;12.00;99.90
8780;DHT22;62328;51.19929245;4.42130175;2023-11-21T11:43:06;11.90;99.90
8780;DHT22;62328;51.19929245;4.42130175;2023-11-21T11:45:34;11.90;99.90
8780;DHT22;62328;51.19929245;4.42130175;2023-11-21T11:48:05;11.90;99.90
8780;DHT22;62328;51.19929245;4.42130175;2023-11-21T11:50:33;11.90;99.90
8780;DHT22;62328;51.19929245;4.42130175;2023-11-21T11:53:12;11.90;99.90
8780;DHT22;62328;51.19929245;4.42130175;2023-11-21T11:55:39;11.90;99.90
8780;DHT22;62328;51.19929245;4.42130175;2023-11-21T11:58:07;11.90;99.90
8780;DHT22;62328;51.19929245;4.42130175;2023-11-21T12:00:35;11.90;99.90
8780;DHT22;62328;51.19929245;4.42130175;2023-11-21T12:03:06;11.90;99.90
8780;DHT22;62328;51.19929245;4.42130175;2023-11-21T12:05:36;12.00;99.90
8780;DHT22;62328;51.19929245;4.42130175;2023-11-21T12:08:05;12.00;99.90
8780;DHT22;62328;51.19929245;4.42130175;2023-11-21T12:10:34;11.90;99.90
8780;DHT22;62328;51.19929245;4.42130175;2023-11-21T12:13:02;12.00;99.90
8780;DHT22;62328;51.19929245;4.42130175;2023-11-21T12:15:31;12.00;99.90
8780;DHT22;62328;51.19929245;4.42130175;2023-11-21T12:17:58;12.00;99.90
8780;DHT22;62328;51.19929245;4.42130175;2023-11-21T12:20:26;12.00;99.90
8780;DHT22;62328;51.19929245;4.42130175;2023-11-21T12:22:56;12.00;99.90
8780;DHT22;62328;51.19929245;4.42130175;2023-11-21T12:25:25;12.00;99.90
8780;DHT22;62328;51.19929245;4.42130175;2023-11-21T12:27:55;12.00;99.90
8780;DHT22;62328;51.19929245;4.42130175;2023-11-21T12:30:26;12.00;99.90
8780;DHT22;62328;51.19929245;4.42130175;2023-11-21T12:32:57;12.00;99.90
8780;DHT22;62328;51.19929245;4.42130175;2023-11-21T12:35:26;12.00;99.90
8780;DHT22;62328;51.19929245;4.42130175;2023-11-21T12:37:56;12.00;99.90
8780;DHT22;62328;51.19929245;4.42130175;2023-11-21T12:40:24;12.00;99.90
8780;DHT22;62328;51.19929245;4.42130175;2023-11-21T12:42:53;11.90;99.90
8780;DHT22;62328;51.19929245;4.42130175;2023-11-21T12:45:21;11.90;99.90
8780;DHT22;62328;51.19929245;4.42130175;2023-11-21T12:47:49;11.90;99.90
8780;DHT22;62328;51.19929245;4.42130175;2023-11-21T12:50:19;11.90;99.90
8780;DHT22;62328;51.19929245;4.42130175;2023-11-21T12:52:49;11.80;99.90
8780;DHT22;62328;51.19929245;4.42130175;2023-11-21T12:55:19;11.80;99.90
8780;DHT22;62328;51.19929245;4.42130175;2023-11-21T12:57:49;11.80;99.90
8780;DHT22;62328;51.19929245;4.42130175;2023-11-21T13:00:27;11.90;99.90
8780;DHT22;62328;51.19929245;4.42130175;2023-11-21T13:02:54;11.80;99.90
8780;DHT22;62328;51.19929245;4.42130175;2023-11-21T13:05:29;11.80;99.90
8780;DHT22;62328;51.19929245;4.42130175;2023-11-21T13:07:58;12.30;99.90
8780;DHT22;62328;51.19929245;4.42130175;2023-11-21T13:10:31;11.90;99.90
8780;DHT22;62328;51.19929245;4.42130175;2023-11-21T13:12:58;11.90;99.90
8780;DHT22;62328;51.19929245;4.42130175;2023-11-21T13:15:26;11.90;99.90
8780;DHT22;62328;51.19929245;4.42130175;2023-11-21T13:17:54;11.90;99.90
8780;DHT22;62328;51.19929245;4.42130175;2023-11-21T13:20:23;11.90;99.90
8780;DHT22;62328;51.19929245;4.42130175;2023-11-21T13:22:52;11.90;99.90
8780;DHT22;62328;51.19929245;4.42130175;2023-11-21T13:25:21;11.90;99.90
8780;DHT22;62328;51.19929245;4.42130175;2023-11-21T13:27:49;11.90;99.90
8780;DHT22;62328;51.19929245;4.42130175;2023-11-21T13:30:16;11.90;99.90
8780;DHT22;62328;51.19929245;4.42130175;2023-11-21T13:32:44;12.00;99.90
8780;DHT22;62328;51.19929245;4.42130175;2023-11-21T13:35:12;12.00;99.90
8780;DHT22;62328;51.19929245;4.42130175;2023-11-21T13:37:50;12.00;99.90
8780;DHT22;62328;51.19929245;4.42130175;2023-11-21T13:40:21;12.00;99.90
8780;DHT22;62328;51.19929245;4.42130175;2023-11-21T13:42:54;12.00;99.90
8780;DHT22;62328;51.19929245;4.42130175;2023-11-21T13:45:23;11.90;99.90